Terminal Aerodrome Forecast
Issued by NWS Milwaukee/Sullivan, WI

Home | Current Version | Previous Version | Text Only | Print | Product List | Glossary On
Versions: 1 2 3 4 5 6 7 8 9 10 11 12 13 14 15 16 17 18 19 20 21 22 23 24 25 26 27 28 29 30 31 32 33 34 35 36 37 38 39 40 41 42 43 44 45 46 47 48 49 50
960
FTUS43 KMKX 010058 AAA
TAFMSN
TAF AMD
KMSN 010058Z 0101/0124 05016G25KT 6SM -SHRA BR OVC035
     FM010300 05012KT 6SM -DZ BR OVC028
     FM010500 05012KT 6SM -SHRA OVC015
     FM010700 05010KT 6SM -DZ BR OVC008
     FM010900 04010KT 6SM -DZ BR OVC003
     FM011800 04012G21KT P6SM OVC015
     FM012200 04011G19KT 3SM SHRA BR OVC015=

USA.gov is the U.S. government's official web portal to all federal, state and local government web resources and services.